createdAt,value
2023-03-31T00:00:57.288Z,65.03
2023-03-31T00:04:04.334Z,65.01
2023-03-31T00:07:07.604Z,64.99
2023-03-31T00:10:17.862Z,64.91
2023-03-31T00:13:21.977Z,64.95
2023-03-31T00:16:23.169Z,64.97
2023-03-31T00:19:24.154Z,65.18
2023-03-31T00:22:26.863Z,65.24
2023-03-31T00:25:28.027Z,65.41
2023-03-31T00:28:29.092Z,65.43
2023-03-31T00:31:30.216Z,65.54
2023-03-31T00:34:31.553Z,65.49
2023-03-31T00:37:33.240Z,65.48
2023-03-31T00:40:35.556Z,65.47
2023-03-31T00:43:37.718Z,65.48
2023-03-31T00:46:53.980Z,65.43
2023-03-31T00:49:56.339Z,65.30
2023-03-31T00:53:02.939Z,65.31
2023-03-31T00:56:12.168Z,65.33
2023-03-31T00:59:13.742Z,65.43
2023-03-31T01:02:15.406Z,65.42
2023-03-31T01:05:18.523Z,65.47
2023-03-31T01:08:23.780Z,65.57
2023-03-31T01:11:26.879Z,65.63
2023-03-31T01:14:28.390Z,65.70
2023-03-31T01:17:30.072Z,65.79
2023-03-31T01:21:06.059Z,65.68
2023-03-31T01:24:23.469Z,65.78
2023-03-31T01:27:43.168Z,65.66
2023-03-31T01:31:14.019Z,65.55
2023-03-31T01:34:56.629Z,65.58
2023-03-31T01:38:32.056Z,65.74
2023-03-31T01:41:43.770Z,65.87
2023-03-31T01:44:54.748Z,66.15
2023-03-31T01:47:59.098Z,66.30
2023-03-31T01:51:06.876Z,66.36
2023-03-31T01:54:17.230Z,66.47
2023-03-31T01:57:27.372Z,66.56
2023-03-31T02:00:33.822Z,66.52
2023-03-31T02:03:39.708Z,66.61
2023-03-31T02:06:49.668Z,66.68
2023-03-31T02:09:57.392Z,66.75
2023-03-31T02:12:59.788Z,66.99
2023-03-31T02:16:06.045Z,67.07
2023-03-31T02:19:18.931Z,67.07
2023-03-31T02:22:20.893Z,67.22
2023-03-31T02:25:24.920Z,67.22
2023-03-31T02:28:27.872Z,67.21
2023-03-31T02:31:52.432Z,67.29
2023-03-31T02:35:03.353Z,67.15
2023-03-31T02:38:11.061Z,67.17
2023-03-31T02:41:22.362Z,67.28
2023-03-31T02:44:43.636Z,67.40
2023-03-31T02:47:45.007Z,67.33
2023-03-31T02:51:08.556Z,67.51
2023-03-31T02:54:45.929Z,67.61
2023-03-31T02:58:34.921Z,67.53
2023-03-31T03:02:03.960Z,67.70
2023-03-31T03:05:18.146Z,67.63
2023-03-31T03:08:32.914Z,67.62
2023-03-31T03:11:55.132Z,67.59
2023-03-31T03:15:32.500Z,67.62
2023-03-31T03:18:42.573Z,67.60
2023-03-31T03:21:52.595Z,67.67
2023-03-31T03:25:14.099Z,67.82
2023-03-31T03:28:15.186Z,67.83
2023-03-31T03:31:16.589Z,68.09
2023-03-31T03:34:19.438Z,67.97
2023-03-31T03:37:30.516Z,68.13
2023-03-31T03:40:31.701Z,68.20
2023-03-31T03:43:32.827Z,68.28
2023-03-31T03:46:34.114Z,68.46
2023-03-31T03:49:35.242Z,68.37
2023-03-31T03:52:36.680Z,68.23
2023-03-31T03:55:37.710Z,68.25
2023-03-31T03:58:46.173Z,68.20
2023-03-31T04:04:35.019Z,68.13
2023-03-31T04:07:36.887Z,68.05
2023-03-31T04:11:00.669Z,67.97
2023-03-31T04:14:02.536Z,68.11
2023-03-31T04:17:06.870Z,68.20
2023-03-31T04:20:10.234Z,68.36
2023-03-31T04:23:21.135Z,68.36
2023-03-31T04:26:26.701Z,68.50
2023-03-31T04:29:28.628Z,68.56
2023-03-31T04:32:33.170Z,68.61
2023-03-31T04:35:58.321Z,68.71
2023-03-31T04:39:01.248Z,68.79
2023-03-31T04:42:03.512Z,68.76
2023-03-31T04:45:18.221Z,68.80
2023-03-31T04:48:23.257Z,68.70
2023-03-31T04:51:55.961Z,68.69
2023-03-31T04:54:58.013Z,68.75
2023-03-31T04:58:00.063Z,68.68
2023-03-31T05:01:01.780Z,68.75
2023-03-31T05:04:04.672Z,68.79
2023-03-31T05:07:17.423Z,68.82
2023-03-31T05:10:22.562Z,68.93
2023-03-31T05:13:24.280Z,69.08
2023-03-31T05:16:31.619Z,69.32
2023-03-31T05:19:36.628Z,69.38
2023-03-31T05:22:43.837Z,69.32
2023-03-31T05:25:47.803Z,69.46
2023-03-31T05:29:09.816Z,69.51
2023-03-31T05:32:31.811Z,69.58
2023-03-31T05:35:45.441Z,69.76
2023-03-31T05:38:50.434Z,69.62
2023-03-31T05:41:52.354Z,69.62
2023-03-31T05:45:00.039Z,69.54
2023-03-31T05:48:02.270Z,69.55
2023-03-31T05:51:06.591Z,69.45
2023-03-31T05:54:19.649Z,69.58
2023-03-31T05:57:24.532Z,69.52
2023-03-31T06:00:36.035Z,69.60
2023-03-31T06:03:43.895Z,69.66
2023-03-31T06:06:50.483Z,69.70
2023-03-31T06:09:52.784Z,69.75
2023-03-31T06:12:56.948Z,69.74
2023-03-31T06:16:00.903Z,69.71
2023-03-31T06:19:10.078Z,69.88
2023-03-31T06:22:12.197Z,69.86
2023-03-31T06:25:48.117Z,69.86
2023-03-31T06:29:07.224Z,69.77
2023-03-31T06:32:09.220Z,69.88
2023-03-31T06:35:24.621Z,69.88
2023-03-31T06:38:30.057Z,69.79
2023-03-31T06:42:12.391Z,69.60
2023-03-31T06:45:15.823Z,69.53
2023-03-31T06:48:17.537Z,69.77
2023-03-31T06:51:19.409Z,69.62
2023-03-31T06:54:26.556Z,69.76
2023-03-31T06:57:39.753Z,69.79
2023-03-31T07:00:53.752Z,69.72
2023-03-31T07:03:55.552Z,69.70
2023-03-31T07:07:00.790Z,69.71
2023-03-31T07:10:02.726Z,69.70
2023-03-31T07:13:05.721Z,69.75
2023-03-31T07:16:18.168Z,69.59
2023-03-31T07:19:20.007Z,69.58
2023-03-31T07:22:23.878Z,69.53
2023-03-31T07:25:35.340Z,69.33
2023-03-31T07:28:45.720Z,69.51
2023-03-31T07:32:07.864Z,69.28
2023-03-31T07:35:12.306Z,69.34
2023-03-31T07:38:14.161Z,69.29
2023-03-31T07:41:18.618Z,69.26
2023-03-31T07:44:21.962Z,69.23
2023-03-31T07:47:26.784Z,69.32
2023-03-31T07:50:28.748Z,69.16
2023-03-31T07:53:31.670Z,68.95
2023-03-31T07:56:34.102Z,68.96
2023-03-31T07:59:46.297Z,68.79
2023-03-31T08:02:48.020Z,68.77
2023-03-31T08:05:53.790Z,68.75
2023-03-31T08:08:56.179Z,68.57
2023-03-31T08:11:57.889Z,68.61
2023-03-31T08:14:59.631Z,68.61
2023-03-31T08:18:04.680Z,68.65
2023-03-31T08:21:07.767Z,68.56
2023-03-31T08:24:31.197Z,68.61
2023-03-31T08:27:34.074Z,68.52
2023-03-31T08:30:38.054Z,68.43
2023-03-31T08:33:39.852Z,68.43
2023-03-31T08:36:41.583Z,68.29
2023-03-31T08:39:43.481Z,68.14
2023-03-31T08:42:49.841Z,68.08
2023-03-31T08:45:56.087Z,68.01
2023-03-31T08:49:18.736Z,67.90
2023-03-31T08:52:36.729Z,67.87
2023-03-31T08:55:51.846Z,67.87
2023-03-31T08:58:54.046Z,67.57
2023-03-31T09:02:31.432Z,67.55
2023-03-31T09:05:59.614Z,67.55
2023-03-31T09:09:03.878Z,67.46
2023-03-31T09:12:11.562Z,67.33
2023-03-31T09:15:23.147Z,67.18
2023-03-31T09:18:46.973Z,67.02
2023-03-31T09:21:51.850Z,66.92
2023-03-31T09:25:27.323Z,66.82
2023-03-31T09:28:40.485Z,66.65
2023-03-31T09:31:44.618Z,66.61
2023-03-31T09:35:01.265Z,66.45
2023-03-31T09:38:13.319Z,66.42
2023-03-31T09:41:16.778Z,66.47
2023-03-31T09:44:39.220Z,66.50
2023-03-31T09:47:52.167Z,66.37
2023-03-31T09:51:04.335Z,66.33
2023-03-31T09:54:16.317Z,66.35
2023-03-31T09:57:29.903Z,66.29
2023-03-31T10:00:34.046Z,66.12
2023-03-31T10:03:54.995Z,66.07
2023-03-31T10:06:57.494Z,66.09
2023-03-31T10:09:59.517Z,65.95
2023-03-31T10:13:09.935Z,65.93
2023-03-31T10:16:30.071Z,65.84
2023-03-31T10:19:37.899Z,65.69
2023-03-31T10:22:45.629Z,65.66
2023-03-31T10:25:48.023Z,65.57
2023-03-31T10:28:52.963Z,65.55
2023-03-31T10:31:55.023Z,65.46
2023-03-31T10:34:58.357Z,65.30
2023-03-31T10:38:05.775Z,65.27
2023-03-31T10:41:08.325Z,65.15
2023-03-31T10:44:37.098Z,64.99
2023-03-31T10:47:39.997Z,64.68
2023-03-31T10:50:43.878Z,64.61
2023-03-31T10:53:48.106Z,64.48
2023-03-31T10:56:56.078Z,64.41
2023-03-31T11:00:12.897Z,64.33
2023-03-31T11:03:20.615Z,64.16
2023-03-31T11:07:10.425Z,64.01
2023-03-31T11:10:39.542Z,63.80
2023-03-31T11:14:12.737Z,63.60
2023-03-31T11:17:28.310Z,63.33
2023-03-31T11:21:26.994Z,63.12
2023-03-31T11:24:49.151Z,62.93
2023-03-31T11:28:01.788Z,62.79
2023-03-31T11:31:28.854Z,62.56
2023-03-31T11:35:14.525Z,62.46
2023-03-31T11:38:51.238Z,62.16
2023-03-31T11:41:56.407Z,62.07
2023-03-31T11:45:03.519Z,61.86
2023-03-31T11:48:24.469Z,61.74
2023-03-31T11:51:29.925Z,61.17
2023-03-31T11:54:52.204Z,60.90
2023-03-31T11:57:59.427Z,60.34
2023-03-31T12:01:29.186Z,59.82
2023-03-31T12:04:37.640Z,59.39
2023-03-31T12:08:00.849Z,58.91
2023-03-31T12:11:11.039Z,58.50
2023-03-31T12:14:38.096Z,58.00
2023-03-31T12:17:42.263Z,57.67
2023-03-31T12:20:52.317Z,57.56
2023-03-31T12:23:53.973Z,56.99
2023-03-31T12:27:07.938Z,56.47
2023-03-31T12:30:21.360Z,55.96
2023-03-31T12:33:33.496Z,55.87
2023-03-31T12:36:57.019Z,55.61
2023-03-31T12:40:21.822Z,55.36
2023-03-31T12:43:45.385Z,54.92
2023-03-31T12:47:08.939Z,54.57
2023-03-31T12:50:35.329Z,54.48
2023-03-31T12:53:55.160Z,54.33
2023-03-31T12:57:08.983Z,54.40
2023-03-31T13:00:30.287Z,54.38
2023-03-31T13:04:12.569Z,53.98
2023-03-31T13:07:41.411Z,53.77
2023-03-31T13:10:59.846Z,53.60
2023-03-31T13:14:14.555Z,53.67
2023-03-31T13:17:48.246Z,53.59
2023-03-31T13:21:00.646Z,53.47
2023-03-31T13:24:03.242Z,53.63
2023-03-31T13:27:39.669Z,53.32
2023-03-31T13:30:43.998Z,53.38
2023-03-31T13:33:57.390Z,53.21
2023-03-31T13:37:16.763Z,53.24
2023-03-31T13:40:56.085Z,53.18
2023-03-31T13:44:00.772Z,53.05
2023-03-31T13:47:20.918Z,52.85
2023-03-31T13:50:42.633Z,52.82
2023-03-31T13:54:19.856Z,52.82
2023-03-31T13:57:29.225Z,52.86
2023-03-31T14:01:19.040Z,52.80
2023-03-31T14:04:30.121Z,52.92
2023-03-31T14:07:37.402Z,52.98
2023-03-31T14:10:49.842Z,53.07
2023-03-31T14:14:09.728Z,53.03
2023-03-31T14:17:12.189Z,53.09
2023-03-31T14:20:38.796Z,53.07
2023-03-31T14:23:55.975Z,53.07
2023-03-31T14:27:27.160Z,53.05
2023-03-31T14:30:38.642Z,53.13
2023-03-31T14:34:09.699Z,53.09
2023-03-31T14:37:13.926Z,53.13
2023-03-31T14:40:16.987Z,52.94
2023-03-31T14:43:25.750Z,52.88
2023-03-31T14:46:32.837Z,52.85
2023-03-31T14:49:48.654Z,52.90
2023-03-31T14:52:52.518Z,52.98
2023-03-31T14:56:05.180Z,52.74
2023-03-31T14:59:07.952Z,52.92
2023-03-31T15:02:16.940Z,52.91
2023-03-31T15:05:32.991Z,52.97
2023-03-31T15:08:37.543Z,53.00
2023-03-31T15:11:39.551Z,53.00
2023-03-31T15:14:52.213Z,53.06
2023-03-31T15:17:54.909Z,53.11
2023-03-31T15:20:56.964Z,53.08
2023-03-31T15:23:59.276Z,53.38
2023-03-31T15:27:05.521Z,53.28
2023-03-31T15:30:09.717Z,53.45
2023-03-31T15:33:27.306Z,53.59
2023-03-31T15:36:51.678Z,53.77
2023-03-31T15:39:55.616Z,53.91
2023-03-31T15:43:20.182Z,54.10
2023-03-31T15:46:51.249Z,54.32
2023-03-31T15:50:14.175Z,54.41
2023-03-31T15:53:52.411Z,54.51
2023-03-31T15:57:00.271Z,54.53
2023-03-31T16:00:27.620Z,54.74
2023-03-31T16:03:40.643Z,54.87
2023-03-31T16:06:48.132Z,54.85
2023-03-31T16:10:16.625Z,55.00
2023-03-31T16:13:39.324Z,55.06
2023-03-31T16:16:40.933Z,55.10
2023-03-31T16:19:53.111Z,55.23
2023-03-31T16:22:59.423Z,55.21
2023-03-31T16:26:01.712Z,55.35
2023-03-31T16:29:04.210Z,55.46
2023-03-31T16:32:21.025Z,55.57
2023-03-31T16:35:22.879Z,55.78
2023-03-31T16:38:45.138Z,55.88
2023-03-31T16:41:49.480Z,56.06
2023-03-31T16:45:09.617Z,56.36
2023-03-31T16:48:16.673Z,56.57
2023-03-31T16:51:42.650Z,56.63
2023-03-31T16:54:44.784Z,56.95
2023-03-31T16:57:47.104Z,57.03
2023-03-31T17:00:51.464Z,57.23
2023-03-31T17:04:03.429Z,57.34
2023-03-31T17:07:05.255Z,57.39
2023-03-31T17:10:08.148Z,57.46
2023-03-31T17:13:10.566Z,57.66
2023-03-31T17:16:22.124Z,57.72
2023-03-31T17:19:33.617Z,57.87
2023-03-31T17:22:35.794Z,58.03
2023-03-31T17:25:38.351Z,58.15
2023-03-31T17:28:42.885Z,58.30
2023-03-31T17:31:45.092Z,58.38
2023-03-31T17:34:50.570Z,58.48
2023-03-31T17:37:54.001Z,58.73
2023-03-31T17:40:55.795Z,58.85
2023-03-31T17:43:58.086Z,58.92
2023-03-31T17:47:02.241Z,59.18
2023-03-31T17:50:05.049Z,59.32
2023-03-31T17:53:09.196Z,59.40
2023-03-31T17:56:11.820Z,59.63
2023-03-31T17:59:13.563Z,59.81
2023-03-31T18:02:25.705Z,60.05
2023-03-31T18:05:27.635Z,60.24
2023-03-31T18:08:30.075Z,60.41
2023-03-31T18:11:34.900Z,60.69
2023-03-31T18:14:57.458Z,60.62
2023-03-31T18:17:59.984Z,60.83
2023-03-31T18:21:08.639Z,60.92
2023-03-31T18:24:10.539Z,61.07
2023-03-31T18:27:12.591Z,61.20
2023-03-31T18:30:17.059Z,61.32
2023-03-31T18:33:22.046Z,61.40
2023-03-31T18:36:32.509Z,61.53
2023-03-31T18:39:34.679Z,61.63
2023-03-31T18:42:44.213Z,61.73
2023-03-31T18:46:01.360Z,61.82
2023-03-31T18:49:23.633Z,62.02
2023-03-31T18:52:38.675Z,62.12
2023-03-31T18:55:53.213Z,62.17
2023-03-31T18:59:05.257Z,62.23
2023-03-31T19:02:36.874Z,62.39
2023-03-31T19:05:48.065Z,62.54
2023-03-31T19:09:00.944Z,62.72
2023-03-31T19:12:12.017Z,62.78
2023-03-31T19:15:13.897Z,62.95
2023-03-31T19:18:26.363Z,63.12
2023-03-31T19:21:33.183Z,63.17
2023-03-31T19:24:45.139Z,63.20
2023-03-31T19:28:10.017Z,63.33
2023-03-31T19:31:18.035Z,63.34
2023-03-31T19:34:32.541Z,63.46
2023-03-31T19:38:03.926Z,63.50
2023-03-31T19:41:58.788Z,63.71
2023-03-31T19:45:04.291Z,63.84
2023-03-31T19:48:18.290Z,64.10
2023-03-31T19:51:20.494Z,64.16
2023-03-31T19:54:24.997Z,64.24
2023-03-31T19:57:42.956Z,64.30
2023-03-31T20:00:48.169Z,64.40
2023-03-31T20:03:53.240Z,64.55
2023-03-31T20:07:04.736Z,64.58
2023-03-31T20:10:40.566Z,64.74
2023-03-31T20:14:03.101Z,64.92
2023-03-31T20:17:56.031Z,64.98
2023-03-31T20:21:14.779Z,65.03
2023-03-31T20:24:27.465Z,65.31
2023-03-31T20:27:48.419Z,65.34
2023-03-31T20:31:39.546Z,65.47
2023-03-31T20:35:14.269Z,65.69
2023-03-31T20:38:16.522Z,65.71
2023-03-31T20:41:31.914Z,65.71
2023-03-31T20:44:33.895Z,65.75
2023-03-31T20:47:56.149Z,65.95
2023-03-31T20:51:22.778Z,65.97
2023-03-31T20:58:50.580Z,66.18
2023-03-31T21:02:35.507Z,66.14
2023-03-31T21:06:24.012Z,66.44
2023-03-31T21:09:26.308Z,66.46
2023-03-31T21:12:28.937Z,66.56
2023-03-31T21:15:54.524Z,66.73
2023-03-31T21:19:37.031Z,66.87
2023-03-31T21:23:00.782Z,66.90
2023-03-31T21:26:23.244Z,67.13
2023-03-31T21:29:25.116Z,67.09
2023-03-31T21:32:30.300Z,67.26
2023-03-31T21:35:52.777Z,67.26
2023-03-31T21:38:55.783Z,67.33
2023-03-31T21:41:57.520Z,67.34
2023-03-31T21:45:19.527Z,67.48
2023-03-31T21:48:31.865Z,67.56
2023-03-31T21:51:43.981Z,67.59
2023-03-31T21:54:46.049Z,67.72
2023-03-31T21:57:50.845Z,67.78
2023-03-31T22:01:26.752Z,67.89
2023-03-31T22:04:30.693Z,67.80
2023-03-31T22:07:33.799Z,67.71
2023-03-31T22:11:08.376Z,67.80
2023-03-31T22:14:30.535Z,67.94
2023-03-31T22:17:45.362Z,67.94
2023-03-31T22:21:26.274Z,67.98
2023-03-31T22:24:57.515Z,68.01
2023-03-31T22:28:00.164Z,68.05
2023-03-31T22:31:02.124Z,68.14
2023-03-31T22:34:06.600Z,68.29
2023-03-31T22:37:20.632Z,68.48
2023-03-31T22:40:46.069Z,68.49
2023-03-31T22:44:08.438Z,68.59
2023-03-31T22:47:18.076Z,68.72
2023-03-31T22:50:32.853Z,68.79
2023-03-31T22:53:58.258Z,68.82
2023-03-31T22:57:32.286Z,68.93
2023-03-31T23:00:42.205Z,68.98
2023-03-31T23:04:08.909Z,68.98
2023-03-31T23:07:50.629Z,69.11
2023-03-31T23:11:33.136Z,69.26
2023-03-31T23:15:45.006Z,69.40
2023-03-31T23:19:26.039Z,69.62
2023-03-31T23:22:56.640Z,69.65
2023-03-31T23:26:15.697Z,69.58
2023-03-31T23:29:46.676Z,69.62
2023-03-31T23:33:28.942Z,69.75
2023-03-31T23:37:03.208Z,69.61
2023-03-31T23:40:57.357Z,69.53
2023-03-31T23:44:59.849Z,69.68
2023-03-31T23:49:05.374Z,69.78
2023-03-31T23:52:59.435Z,69.77
2023-03-31T23:56:47.060Z,69.81
